createdAt,value
2019-04-07T00:01:11.426Z,99.90
2019-04-07T00:03:40.793Z,99.90
2019-04-07T00:06:10.861Z,99.90
2019-04-07T00:08:40.246Z,99.90
2019-04-07T00:11:09.613Z,99.90
2019-04-07T00:13:38.927Z,99.90
2019-04-07T00:16:08.406Z,99.90
2019-04-07T00:18:37.821Z,99.90
2019-04-07T00:21:07.483Z,99.90
2019-04-07T00:23:36.791Z,99.90
2019-04-07T00:26:06.120Z,99.90
2019-04-07T00:28:35.509Z,99.90
2019-04-07T00:31:05.130Z,99.90
2019-04-07T00:33:34.506Z,99.90
2019-04-07T00:36:04.193Z,99.90
2019-04-07T00:38:33.614Z,99.90
2019-04-07T00:41:02.972Z,99.90
2019-04-07T00:43:32.288Z,99.90
2019-04-07T00:46:01.635Z,99.90
2019-04-07T00:48:31.139Z,99.90
2019-04-07T00:51:00.438Z,99.90
2019-04-07T00:53:30.011Z,99.90
2019-04-07T00:55:59.481Z,99.90
2019-04-07T00:58:29.310Z,99.90
2019-04-07T01:00:58.887Z,99.90
2019-04-07T01:03:28.324Z,99.90
2019-04-07T01:05:57.664Z,99.90
2019-04-07T01:08:27.160Z,99.90
2019-04-07T01:10:56.993Z,99.90
2019-04-07T01:13:27.221Z,99.90
2019-04-07T01:15:57.141Z,99.90
2019-04-07T01:18:30.516Z,99.90
2019-04-07T01:21:00.580Z,99.90
2019-04-07T01:23:29.949Z,99.90
2019-04-07T01:25:59.245Z,99.90
2019-04-07T01:28:28.645Z,99.90
2019-04-07T01:30:58.089Z,99.90
2019-04-07T01:33:27.759Z,99.90
2019-04-07T01:35:57.251Z,99.90
2019-04-07T01:38:26.778Z,99.90
2019-04-07T01:41:02.093Z,99.90
2019-04-07T01:43:39.406Z,99.90
2019-04-07T01:46:18.403Z,99.90
2019-04-07T01:49:03.276Z,99.90
2019-04-07T01:51:50.436Z,99.90
2019-04-07T01:54:39.530Z,99.90
2019-04-07T01:57:25.896Z,99.90
2019-04-07T02:00:19.995Z,99.90
2019-04-07T02:03:14.386Z,99.90
2019-04-07T02:06:03.650Z,99.90
2019-04-07T02:08:42.943Z,99.90
2019-04-07T02:11:21.184Z,99.90
2019-04-07T02:14:27.431Z,99.90
2019-04-07T02:17:11.967Z,99.90
2019-04-07T02:19:57.177Z,99.90
2019-04-07T02:22:44.431Z,99.90
2019-04-07T02:25:36.131Z,99.90
2019-04-07T02:28:18.781Z,99.90
2019-04-07T02:31:19.192Z,99.90
2019-04-07T02:33:59.964Z,99.90
2019-04-07T02:36:46.530Z,99.90
2019-04-07T02:39:34.896Z,99.90
2019-04-07T02:42:35.162Z,99.90
2019-04-07T02:45:19.726Z,99.90
2019-04-07T02:48:03.415Z,99.90
2019-04-07T02:50:54.951Z,99.90
2019-04-07T02:53:46.986Z,99.90
2019-04-07T02:56:29.322Z,99.90
2019-04-07T02:59:14.399Z,99.90
2019-04-07T03:01:59.286Z,99.90
2019-04-07T03:04:53.625Z,99.90
2019-04-07T03:07:36.226Z,99.90
2019-04-07T03:10:23.591Z,99.90
2019-04-07T03:13:12.723Z,99.90
2019-04-07T03:16:04.494Z,99.90
2019-04-07T03:19:04.793Z,99.90
2019-04-07T03:21:59.552Z,99.90
2019-04-07T03:24:35.115Z,99.90
2019-04-07T03:27:30.250Z,99.90
2019-04-07T03:30:06.228Z,99.90
2019-04-07T03:33:02.808Z,99.90
2019-04-07T03:35:36.031Z,99.90
2019-04-07T03:38:37.237Z,99.90
2019-04-07T03:41:29.135Z,99.90
2019-04-07T03:44:18.889Z,99.90
2019-04-07T03:47:01.333Z,99.90
2019-04-07T03:49:59.628Z,99.90
2019-04-07T03:52:47.030Z,99.90
2019-04-07T03:55:24.575Z,99.90
2019-04-07T03:58:12.277Z,99.90
2019-04-07T04:01:33.660Z,99.90
2019-04-07T04:04:26.077Z,99.90
2019-04-07T04:06:59.962Z,99.90
2019-04-07T04:09:47.562Z,99.90
2019-04-07T04:12:31.705Z,99.90
2019-04-07T04:15:08.863Z,99.90
2019-04-07T04:17:39.069Z,99.90
2019-04-07T04:20:08.716Z,99.90
2019-04-07T04:22:39.565Z,99.90
2019-04-07T04:25:09.221Z,99.90
2019-04-07T04:27:38.983Z,99.90
2019-04-07T04:30:10.808Z,99.90
2019-04-07T04:32:43.501Z,99.90
2019-04-07T04:35:13.058Z,99.90
2019-04-07T04:37:48.208Z,99.90
2019-04-07T04:40:14.075Z,99.90
2019-04-07T04:42:44.618Z,99.90
2019-04-07T04:45:14.080Z,99.90
2019-04-07T04:47:43.385Z,99.90
2019-04-07T04:50:13.175Z,99.90
2019-04-07T04:52:42.766Z,99.90
2019-04-07T04:55:12.264Z,99.90
2019-04-07T04:57:42.442Z,99.90
2019-04-07T05:00:12.240Z,99.90
2019-04-07T05:02:41.498Z,99.90
2019-04-07T05:05:11.005Z,99.90
2019-04-07T05:07:51.055Z,99.90
2019-04-07T05:10:12.158Z,99.90
2019-04-07T05:12:42.020Z,99.90
2019-04-07T05:15:11.973Z,99.90
2019-04-07T05:17:42.065Z,99.90
2019-04-07T05:20:12.343Z,99.90
2019-04-07T05:22:42.180Z,99.90
2019-04-07T05:25:12.034Z,99.90
2019-04-07T05:27:41.601Z,99.90
2019-04-07T05:30:11.312Z,99.90
2019-04-07T05:32:41.036Z,99.90
2019-04-07T05:35:11.237Z,99.90
2019-04-07T05:37:40.676Z,99.90
2019-04-07T05:40:10.157Z,99.90
2019-04-07T05:42:40.029Z,99.90
2019-04-07T05:45:10.061Z,99.90
2019-04-07T05:47:43.612Z,99.90
2019-04-07T05:50:11.185Z,99.90
2019-04-07T05:52:40.913Z,99.90
2019-04-07T05:55:10.964Z,99.90
2019-04-07T05:57:40.304Z,99.90
2019-04-07T06:00:15.662Z,99.90
2019-04-07T06:02:42.928Z,99.90
2019-04-07T06:05:12.509Z,99.90
2019-04-07T06:07:42.413Z,99.90
2019-04-07T06:10:14.529Z,99.90
2019-04-07T06:12:46.872Z,99.90
2019-04-07T06:15:19.263Z,99.90
2019-04-07T06:17:46.521Z,99.90
2019-04-07T06:20:18.062Z,99.90
2019-04-07T06:22:53.075Z,99.90
2019-04-07T06:25:21.213Z,99.90
2019-04-07T06:27:51.641Z,99.90
2019-04-07T06:30:22.097Z,99.90
2019-04-07T06:32:51.825Z,99.90
2019-04-07T06:35:21.215Z,99.90
2019-04-07T06:37:50.835Z,99.90
2019-04-07T06:40:21.295Z,99.90
2019-04-07T06:42:51.313Z,99.90
2019-04-07T06:45:24.480Z,99.90
2019-04-07T06:47:56.588Z,99.90
2019-04-07T06:50:45.488Z,99.90
2019-04-07T06:53:17.444Z,99.90
2019-04-07T06:56:05.747Z,99.90
2019-04-07T06:58:53.214Z,99.90
2019-04-07T07:01:44.909Z,99.90
2019-04-07T07:04:32.233Z,99.90
2019-04-07T07:07:18.949Z,99.90
2019-04-07T07:10:06.587Z,99.90
2019-04-07T07:12:50.689Z,99.90
2019-04-07T07:15:36.073Z,99.90
2019-04-07T07:18:23.832Z,99.90
2019-04-07T07:21:03.144Z,99.90
2019-04-07T07:23:35.249Z,99.90
2019-04-07T07:26:05.946Z,99.90
2019-04-07T07:28:36.041Z,99.90
2019-04-07T07:31:06.146Z,99.90
2019-04-07T07:33:38.385Z,99.90
2019-04-07T07:36:07.951Z,99.90
2019-04-07T07:38:37.326Z,99.90
2019-04-07T07:41:06.559Z,99.90
2019-04-07T07:43:35.932Z,99.90
2019-04-07T07:46:05.595Z,99.90
2019-04-07T07:48:35.622Z,99.90
2019-04-07T07:51:07.180Z,99.90
2019-04-07T07:53:37.081Z,99.90
2019-04-07T07:56:10.730Z,99.90
2019-04-07T07:58:37.626Z,99.90
2019-04-07T08:01:07.032Z,99.90
2019-04-07T08:03:36.512Z,99.90
2019-04-07T08:06:08.213Z,99.90
2019-04-07T08:08:37.279Z,99.90
2019-04-07T08:11:07.343Z,99.90
2019-04-07T08:13:42.071Z,99.90
2019-04-07T08:16:07.723Z,99.90
2019-04-07T08:18:40.369Z,99.90
2019-04-07T08:21:08.695Z,99.90
2019-04-07T08:23:38.499Z,99.90
2019-04-07T08:26:08.524Z,99.90
2019-04-07T08:28:38.181Z,99.90
2019-04-07T08:31:07.491Z,99.90
2019-04-07T08:33:37.409Z,99.90
2019-04-07T08:36:11.668Z,99.90
2019-04-07T08:38:38.017Z,99.90
2019-04-07T08:41:10.126Z,99.90
2019-04-07T08:43:38.338Z,99.90
2019-04-07T08:46:07.628Z,99.90
2019-04-07T08:48:37.453Z,99.90
2019-04-07T08:51:06.944Z,99.90
2019-04-07T08:53:36.351Z,99.90
2019-04-07T08:56:08.183Z,99.90
2019-04-07T08:58:38.878Z,99.90
2019-04-07T09:01:08.586Z,99.90
2019-04-07T09:03:38.738Z,99.90
2019-04-07T09:06:08.177Z,99.90
2019-04-07T09:08:39.565Z,99.90
2019-04-07T09:11:11.226Z,99.90
2019-04-07T09:13:42.970Z,99.90
2019-04-07T09:16:52.881Z,99.90
2019-04-07T09:19:42.014Z,99.90
2019-04-07T09:22:31.617Z,99.90
2019-04-07T09:25:22.538Z,99.90
2019-04-07T09:27:59.164Z,99.90
2019-04-07T09:31:06.286Z,99.90
2019-04-07T09:34:09.574Z,99.90
2019-04-07T09:36:56.199Z,99.90
2019-04-07T09:39:57.545Z,99.90
2019-04-07T09:42:41.178Z,99.90
2019-04-07T09:45:44.750Z,99.90
2019-04-07T09:48:27.790Z,99.90
2019-04-07T09:51:22.047Z,99.90
2019-04-07T09:54:11.026Z,99.90
2019-04-07T09:56:51.871Z,99.90
2019-04-07T09:59:50.861Z,99.90
2019-04-07T10:02:39.337Z,99.90
2019-04-07T10:05:30.911Z,99.90
2019-04-07T10:08:11.413Z,99.90
2019-04-07T10:10:54.831Z,99.90
2019-04-07T10:13:51.186Z,99.90
2019-04-07T10:16:38.166Z,99.90
2019-04-07T10:19:29.950Z,99.90
2019-04-07T10:22:21.581Z,99.90
2019-04-07T10:25:10.711Z,99.10
2019-04-07T10:27:55.629Z,97.70
2019-04-07T10:30:32.804Z,98.70
2019-04-07T10:33:08.877Z,97.70
2019-04-07T10:36:05.997Z,97.40
2019-04-07T10:38:45.471Z,97.50
2019-04-07T10:41:48.595Z,97.60
2019-04-07T10:44:43.561Z,99.10
2019-04-07T10:47:41.194Z,99.20
2019-04-07T10:50:30.228Z,99.90
2019-04-07T10:53:15.997Z,99.90
2019-04-07T10:55:57.478Z,99.90
2019-04-07T10:58:48.772Z,99.90
2019-04-07T11:01:32.080Z,99.90
2019-04-07T11:04:19.195Z,99.90
2019-04-07T11:06:57.483Z,99.90
2019-04-07T11:09:45.075Z,99.90
2019-04-07T11:12:32.587Z,99.90
2019-04-07T11:15:23.617Z,99.90
2019-04-07T11:18:13.634Z,99.90
2019-04-07T11:21:00.981Z,99.10
2019-04-07T11:23:49.035Z,99.10
2019-04-07T11:26:37.471Z,99.90
2019-04-07T11:29:13.313Z,99.90
2019-04-07T11:32:01.624Z,99.50
2019-04-07T11:34:41.394Z,99.90
2019-04-07T11:37:29.134Z,99.30
2019-04-07T11:40:42.068Z,99.30
2019-04-07T11:43:21.159Z,99.30
2019-04-07T11:46:02.899Z,98.90
2019-04-07T11:49:10.821Z,99.40
2019-04-07T11:51:44.262Z,99.20
2019-04-07T11:54:21.652Z,99.00
2019-04-07T11:57:01.040Z,99.90
2019-04-07T11:59:51.319Z,99.90
2019-04-07T12:02:53.309Z,98.80
2019-04-07T12:05:40.809Z,99.00
2019-04-07T12:08:32.481Z,97.90
2019-04-07T12:11:31.049Z,97.60
2019-04-07T12:14:25.646Z,97.90
2019-04-07T12:17:15.060Z,99.10
2019-04-07T12:20:03.224Z,98.30
2019-04-07T12:22:50.288Z,98.60
2019-04-07T12:25:40.349Z,97.90
2019-04-07T12:28:35.390Z,97.90
2019-04-07T12:31:22.752Z,97.30
2019-04-07T12:34:01.848Z,97.20
2019-04-07T12:36:41.973Z,98.40
2019-04-07T12:39:28.862Z,97.70
2019-04-07T12:42:17.818Z,99.40
2019-04-07T12:45:20.499Z,97.90
2019-04-07T12:48:15.668Z,99.80
2019-04-07T12:51:10.054Z,99.10
2019-04-07T12:53:47.908Z,98.50
2019-04-07T12:56:38.027Z,98.10
2019-04-07T12:59:47.034Z,98.90
2019-04-07T13:02:37.034Z,98.50
2019-04-07T13:05:18.698Z,98.00
2019-04-07T13:08:14.542Z,96.90
2019-04-07T13:10:54.691Z,99.20
2019-04-07T13:13:49.192Z,98.50
2019-04-07T13:16:35.917Z,97.50
2019-04-07T13:19:41.811Z,97.60
2019-04-07T13:22:18.343Z,96.90
2019-04-07T13:25:13.163Z,97.20
2019-04-07T13:28:17.198Z,98.00
2019-04-07T13:31:02.980Z,97.00
2019-04-07T13:33:48.325Z,96.20
2019-04-07T13:36:42.785Z,96.40
2019-04-07T13:39:30.347Z,97.80
2019-04-07T13:42:25.440Z,97.20
2019-04-07T13:45:04.309Z,97.30
2019-04-07T13:48:07.804Z,98.80
2019-04-07T13:50:46.922Z,97.20
2019-04-07T13:53:53.178Z,98.10
2019-04-07T13:56:41.879Z,97.20
2019-04-07T13:59:33.796Z,96.90
2019-04-07T14:02:17.466Z,99.30
2019-04-07T14:04:56.330Z,99.50
2019-04-07T14:08:02.912Z,99.00
2019-04-07T14:11:10.939Z,98.90
2019-04-07T14:13:57.862Z,98.00
2019-04-07T14:16:46.454Z,98.30
2019-04-07T14:19:32.060Z,98.20
2019-04-07T14:22:12.353Z,98.70
2019-04-07T14:25:01.580Z,96.90
2019-04-07T14:27:48.692Z,97.30
2019-04-07T14:30:52.238Z,98.80
2019-04-07T14:33:55.651Z,97.80
2019-04-07T14:36:44.593Z,97.40
2019-04-07T14:39:26.022Z,97.90
2019-04-07T14:42:17.662Z,97.60
2019-04-07T14:44:59.098Z,98.40
2019-04-07T14:47:34.493Z,98.30
2019-04-07T14:50:26.495Z,97.20
2019-04-07T14:53:07.814Z,96.90
2019-04-07T14:56:02.227Z,96.90
2019-04-07T14:58:51.068Z,97.80
2019-04-07T15:01:36.770Z,96.20
2019-04-07T15:04:06.449Z,95.90
2019-04-07T15:06:36.597Z,95.60
2019-04-07T15:09:24.036Z,96.10
2019-04-07T15:12:17.567Z,95.50
2019-04-07T15:14:43.818Z,95.90
2019-04-07T15:17:26.281Z,95.60
2019-04-07T15:19:57.086Z,96.00
2019-04-07T15:22:29.981Z,95.50
2019-04-07T15:24:58.107Z,94.10
2019-04-07T15:27:28.302Z,95.00
2019-04-07T15:29:57.841Z,95.50
2019-04-07T15:32:28.958Z,94.90
2019-04-07T15:34:58.920Z,95.30
2019-04-07T15:37:29.215Z,94.10
2019-04-07T15:40:01.001Z,94.80
2019-04-07T15:42:40.363Z,95.30
2019-04-07T15:45:02.425Z,95.60
2019-04-07T15:47:33.403Z,95.80
2019-04-07T15:50:03.042Z,95.50
2019-04-07T15:52:32.357Z,95.50
2019-04-07T15:55:02.020Z,95.90
2019-04-07T15:57:32.369Z,95.00
2019-04-07T16:00:03.939Z,95.20
2019-04-07T16:02:33.552Z,95.30
2019-04-07T16:05:03.700Z,96.00
2019-04-07T16:07:33.129Z,95.90
2019-04-07T16:10:03.772Z,95.50
2019-04-07T16:12:43.491Z,95.60
2019-04-07T16:15:05.526Z,96.20
2019-04-07T16:17:34.933Z,95.40
2019-04-07T16:20:05.756Z,95.60
2019-04-07T16:22:37.487Z,96.00
2019-04-07T16:25:08.136Z,96.00
2019-04-07T16:27:39.215Z,96.00
2019-04-07T16:30:09.800Z,96.70
2019-04-07T16:32:39.495Z,96.10
2019-04-07T16:35:13.063Z,96.20
2019-04-07T16:37:40.344Z,96.00
2019-04-07T16:40:11.826Z,96.00
2019-04-07T16:42:45.621Z,96.10
2019-04-07T16:45:16.421Z,96.50
2019-04-07T16:47:44.033Z,96.70
2019-04-07T16:50:13.453Z,97.10
2019-04-07T16:52:43.165Z,96.70
2019-04-07T16:55:34.910Z,97.30
2019-04-07T16:58:04.609Z,96.60
2019-04-07T17:00:34.513Z,96.40
2019-04-07T17:03:05.587Z,95.80
2019-04-07T17:05:36.209Z,96.10
2019-04-07T17:08:05.882Z,96.40
2019-04-07T17:10:35.457Z,97.00
2019-04-07T17:13:15.455Z,96.90
2019-04-07T17:15:39.428Z,96.70
2019-04-07T17:18:10.268Z,96.80
2019-04-07T17:20:42.351Z,96.60
2019-04-07T17:23:12.200Z,96.80
2019-04-07T17:25:41.735Z,96.70
2019-04-07T17:28:12.904Z,97.40
2019-04-07T17:30:46.471Z,97.00
2019-04-07T17:33:16.754Z,97.30
2019-04-07T17:35:47.466Z,97.70
2019-04-07T17:38:18.268Z,97.40
2019-04-07T17:40:49.309Z,98.20
2019-04-07T17:43:46.526Z,97.70
2019-04-07T17:46:13.104Z,98.10
2019-04-07T17:48:59.865Z,99.30
2019-04-07T17:51:47.939Z,98.50
2019-04-07T17:54:30.299Z,98.60
2019-04-07T17:57:06.685Z,98.10
2019-04-07T17:59:59.217Z,98.30
2019-04-07T18:02:54.642Z,98.70
2019-04-07T18:05:31.235Z,98.90
2019-04-07T18:08:17.872Z,99.60
2019-04-07T18:11:04.676Z,99.90
2019-04-07T18:13:58.018Z,99.90
2019-04-07T18:17:02.660Z,99.90
2019-04-07T18:19:45.160Z,99.90
2019-04-07T18:22:26.171Z,99.90
2019-04-07T18:25:23.958Z,99.90
2019-04-07T18:28:02.967Z,99.90
2019-04-07T18:30:49.938Z,99.90
2019-04-07T18:33:57.253Z,99.90
2019-04-07T18:36:52.484Z,99.90
2019-04-07T18:39:40.730Z,99.90
2019-04-07T18:42:31.736Z,99.90
2019-04-07T18:45:18.974Z,99.90
2019-04-07T18:48:28.425Z,99.90
2019-04-07T18:51:10.653Z,99.90
2019-04-07T18:54:03.820Z,99.90
2019-04-07T18:56:50.662Z,99.90
2019-04-07T18:59:29.223Z,99.90
2019-04-07T19:02:26.909Z,99.90
2019-04-07T19:05:02.237Z,99.90
2019-04-07T19:07:49.691Z,99.90
2019-04-07T19:10:30.458Z,99.90
2019-04-07T19:13:37.237Z,99.90
2019-04-07T19:16:23.422Z,99.90
2019-04-07T19:19:10.657Z,99.90
2019-04-07T19:22:11.107Z,99.90
2019-04-07T19:24:47.495Z,99.90
2019-04-07T19:27:33.672Z,99.90
2019-04-07T19:30:22.922Z,99.90
2019-04-07T19:33:11.031Z,99.90
2019-04-07T19:36:04.806Z,99.90
2019-04-07T19:39:05.036Z,99.90
2019-04-07T19:42:04.613Z,99.90
2019-04-07T19:44:55.443Z,99.90
2019-04-07T19:47:41.852Z,99.90
2019-04-07T19:50:28.999Z,99.90
2019-04-07T19:53:10.552Z,99.90
2019-04-07T19:55:56.298Z,99.90
2019-04-07T19:58:44.904Z,99.90
2019-04-07T20:01:33.640Z,99.90
2019-04-07T20:04:31.034Z,99.90
2019-04-07T20:07:09.154Z,99.90
2019-04-07T20:09:48.756Z,99.90
2019-04-07T20:12:34.630Z,99.90
2019-04-07T20:15:31.900Z,99.90
2019-04-07T20:18:28.341Z,99.90
2019-04-07T20:21:17.565Z,99.90
2019-04-07T20:24:03.642Z,99.90
2019-04-07T20:26:41.052Z,99.90
2019-04-07T20:29:34.127Z,99.90
2019-04-07T20:32:25.307Z,99.90
2019-04-07T20:35:14.581Z,99.90
2019-04-07T20:38:08.814Z,99.90
2019-04-07T20:40:47.852Z,99.90
2019-04-07T20:43:29.170Z,99.90
2019-04-07T20:46:23.968Z,99.90
2019-04-07T20:49:15.905Z,99.90
2019-04-07T20:52:00.671Z,99.90
2019-04-07T20:55:03.786Z,99.90
2019-04-07T20:57:54.950Z,99.90
2019-04-07T21:00:54.193Z,99.90
2019-04-07T21:03:45.074Z,99.90
2019-04-07T21:06:44.163Z,99.90
2019-04-07T21:09:33.347Z,99.90
2019-04-07T21:12:28.924Z,99.90
2019-04-07T21:15:19.052Z,99.90
2019-04-07T21:17:58.330Z,99.90
2019-04-07T21:20:44.584Z,99.90
2019-04-07T21:23:34.625Z,99.90
2019-04-07T21:26:21.332Z,99.90
2019-04-07T21:29:02.431Z,99.90
2019-04-07T21:31:50.741Z,99.90
2019-04-07T21:34:48.009Z,99.90
2019-04-07T21:37:33.779Z,99.90
2019-04-07T21:40:17.578Z,99.90
2019-04-07T21:43:04.656Z,99.90
2019-04-07T21:46:08.237Z,99.90
2019-04-07T21:48:47.472Z,99.90
2019-04-07T21:51:35.827Z,99.90
2019-04-07T21:54:22.959Z,99.90
2019-04-07T21:57:23.566Z,99.90
2019-04-07T22:00:21.020Z,99.90
2019-04-07T22:03:05.551Z,99.90
2019-04-07T22:05:57.140Z,99.90
2019-04-07T22:08:47.778Z,99.90
2019-04-07T22:11:17.647Z,99.90
2019-04-07T22:13:47.155Z,99.90
2019-04-07T22:16:16.515Z,99.90
2019-04-07T22:18:45.837Z,99.90
2019-04-07T22:21:15.185Z,99.90
2019-04-07T22:23:44.482Z,99.90
2019-04-07T22:26:17.912Z,99.90
2019-04-07T22:28:45.021Z,99.90
2019-04-07T22:31:17.070Z,99.90
2019-04-07T22:33:46.621Z,99.90
2019-04-07T22:36:16.746Z,99.90
2019-04-07T22:38:46.125Z,99.90
2019-04-07T22:41:15.593Z,99.90
2019-04-07T22:43:47.786Z,99.90
2019-04-07T22:46:19.515Z,99.90
2019-04-07T22:48:47.983Z,99.90
2019-04-07T22:51:17.419Z,99.90
2019-04-07T22:53:47.571Z,99.90
2019-04-07T22:56:16.981Z,99.90
2019-04-07T22:58:46.533Z,99.90
2019-04-07T23:01:16.559Z,99.90
2019-04-07T23:03:46.016Z,99.90
2019-04-07T23:06:15.417Z,99.90
2019-04-07T23:08:45.358Z,99.90
2019-04-07T23:11:14.805Z,99.90
2019-04-07T23:13:45.067Z,99.90
2019-04-07T23:16:16.571Z,99.90
2019-04-07T23:18:46.504Z,99.90
2019-04-07T23:21:15.850Z,99.90
2019-04-07T23:23:46.162Z,99.90
2019-04-07T23:26:16.002Z,99.90
2019-04-07T23:28:47.080Z,99.90
2019-04-07T23:31:17.255Z,99.90
2019-04-07T23:33:46.541Z,99.90
2019-04-07T23:36:15.964Z,99.90
2019-04-07T23:38:45.585Z,99.90
2019-04-07T23:41:15.909Z,99.90
2019-04-07T23:43:45.976Z,99.90
2019-04-07T23:46:23.959Z,99.90
2019-04-07T23:48:46.403Z,99.90
2019-04-07T23:51:16.477Z,99.90
2019-04-07T23:54:07.535Z,99.90
2019-04-07T23:56:37.546Z,99.90
2019-04-07T23:59:08.062Z,99.90
